Flight Track Log - Related Links

Times and Time Zones

All times are in EDT time to prevent confusion due to time zone crossing. See the ASQ4209 flight status page for this flight to view local times or setup timezone preferences in your user account.

Time Position Orientation Groundspeed Altitude Reporting Facility
EDT Latitude Longitude Course Direction KTS MPH feet Rate Location/Type
Sat 06:47:51 PM 30.4919 -91.2394 226° Southwest 223 257 22,000  Level Houston Center
Sat 06:48:53 PM 30.4833 -91.3194 263° West 260 299 5,200 -6,919 Descending Houston Center
Sat 06:49:55 PM 30.4733 -91.4047 262° West 269 310 7,700 2,293 Climbing Houston Center
Sat 06:50:00 PM 30.4695 -91.5193 257° West  Level FlightAware Approximate
Sat 06:50:56 PM 30.4594 -91.4917 260° West 276 318 9,900  Level Houston Center
Sat 06:51:00 PM 30.4501 -91.6163 257° West  Level FlightAware Approximate
Sat 06:51:58 PM 30.4017 -91.5881 235° Southwest 308 354 11,000  Level Houston Center
Sat 06:52:00 PM 30.4159 -91.7052 227° Southwest  Level FlightAware Approximate
Sat 06:52:59 PM 30.3444 -91.6828 235° Southwest 348 400 11,700  Level Houston Center
Sat 06:53:00 PM 30.3573 -91.7778 226° Southwest  Level FlightAware Approximate
Sat 06:54:01 PM 30.2833 -91.7825 235° Southwest 372 428 12,800  Level Houston Center
Sat 06:55:03 PM 30.2231 -91.8831 235° Southwest 378 435 13,900 1,024 Climbing Houston Center
Sat 06:56:04 PM 30.1639 -91.9786 234° Southwest 383 441 14,900 1,024 Climbing Houston Center
Sat 06:57:06 PM 30.1022 -92.0808 235° Southwest 388 447 16,000 1,161 Climbing Houston Center
Sat 06:58:08 PM 30.0272 -92.2019 234° Southwest 385 443 17,300 1,171 Climbing Houston Center
Sat 06:59:09 PM 29.9661 -92.3025 235° Southwest 383 441 18,400 829 Climbing Houston Center
Sat 07:00:11 PM 29.9019 -92.4072 235° Southwest 395 455 19,000 293 Climbing Houston Center
Sat 07:01:12 PM 29.8708 -92.5361 254° West 422 486 19,000  Level Houston Center
Sat 07:02:14 PM 29.8458 -92.6669 258° West 418 481 19,000  Level Houston Center
Sat 07:03:15 PM 29.8239 -92.7975 259° West 416 479 19,000  Level Houston Center
Sat 07:04:17 PM 29.7997 -92.9278 258° West 416 479 19,000 -829 Level Houston Center
Sat 07:05:18 PM 29.7756 -93.0578 258° West 415 478 17,300 -1,024 Descending Houston Center
Sat 07:06:20 PM 29.7517 -93.1847 258° West 406 467 16,900 -195 Descending Houston Center
Sat 07:07:21 PM 29.7042 -93.3239 249° West 397 457 16,900  Level Houston Center
Sat 07:08:23 PM 29.6492 -93.4392 241° Southwest 407 468 16,900 -195 Level Houston Center
Sat 07:09:24 PM 29.5925 -93.5544 241° Southwest 412 474 16,500 -1,610 Descending Houston Center
Sat 07:10:26 PM 29.5481 -93.6697 246° West 389 448 13,600 -1,756 Descending Houston Center
Sat 07:11:27 PM 29.5194 -93.7903 255° West 385 443 12,900 -341 Descending Houston Center
Sat 07:12:29 PM 29.4908 -93.9108 255° West 391 450 12,900  Level Houston Center
Sat 07:13:30 PM 29.4614 -94.0275 254° West 383 441 12,900  Level Houston Center
Sat 07:14:32 PM 29.4539 -94.1369 266° West 374 430 12,900 61 Level Houston Center
Sat 07:15:09 PM 29.4864 -94.2239 293° West 382 440 13,000 61 Climbing Houston Center
Sat 07:16:11 PM 29.5264 -94.3294 294° West 352 405 13,000 -829 Level Houston Center
Sat 07:17:12 PM 29.5878 -94.4175 309° West 335 386 11,300 -1,475 Descending Houston Center
Sat 07:18:13 PM 29.6522 -94.4958 313° West 324 373 10,000 -672 Descending Houston Center
Sat 07:19:08 PM 29.7117 -94.5675 314° West 338 389 10,000 -69 Level Houston Center
Sat 07:19:40 PM 29.7336 -94.5933 314° West 333 383 9,900 -1,161 Descending Houston Center
Sat 07:20:41 PM 29.7839 -94.6611 311° West 286 329 8,200 -1,706 Descending Houston Center
Sat 07:21:22 PM 29.8239 -94.7267 305° West 284 327 7,000 -706 Descending Houston Center
Sat 07:22:23 PM 29.8686 -94.7981 306° West 279 321 7,000 -934 Level Houston Center
Sat 07:23:24 PM 29.9133 -94.8697 306° West 272 313 5,100 -1,034 Descending Houston Center
Sat 07:24:19 PM 29.9550 -94.9344 307° West 279 321 5,000 -52 Descending Houston Center
Sat 07:25:20 PM 29.9922 -95.0167 298° West 271 312 5,000 -585 Level Houston Center
Sat 07:26:22 PM 29.9917 -95.1011 270° West 264 304 3,800 -1,282 Descending Houston Center
Sat 07:27:17 PM 29.9928 -95.1806 271° West 264 304 2,500 -1,200 Descending Houston Center
Sat 07:27:52 PM 29.9939 -95.2111 272° West 263 303 2,000 -1,151 Descending Houston Center
Sat 07:28:30 PM 29.9928 -95.2697 269° West 202 232 1,100 -780 Descending Houston Center
Sat 07:29:55 PM 29.9950 -95.3378 272° West 204 235 400 -494 Descending Houston Center
Sat 07:31:00 PM 29.9833 -95.3333 311° West  Level FlightAware Approximate

Login

Don't have an account? Register now (free) for customized features, flight alerts, and more!